createdAt,value
2022-08-26T00:02:11.462Z,94940.91
2022-08-26T00:04:39.434Z,94948.19
2022-08-26T00:07:08.912Z,94939.59
2022-08-26T00:09:38.956Z,94935.19
2022-08-26T00:12:09.041Z,94937.53
2022-08-26T00:14:37.044Z,94936.25
2022-08-26T00:17:05.275Z,94936.50
2022-08-26T00:19:36.646Z,94927.41
2022-08-26T00:22:04.750Z,94937.06
2022-08-26T00:24:34.124Z,94931.34
2022-08-26T00:27:02.078Z,94947.75
2022-08-26T00:29:32.001Z,94942.53
2022-08-26T00:32:04.179Z,94936.53
2022-08-26T00:34:32.173Z,94937.56
2022-08-26T00:37:00.244Z,94934.97
2022-08-26T00:39:28.179Z,94948.22
2022-08-26T00:41:57.485Z,94942.25
2022-08-26T00:44:25.363Z,94937.03
2022-08-26T00:46:59.365Z,94937.81
2022-08-26T00:49:35.621Z,94937.53
2022-08-26T00:52:09.702Z,94935.72
2022-08-26T00:54:46.610Z,94942.22
2022-08-26T00:57:18.479Z,94940.91
2022-08-26T00:59:51.630Z,94940.81
2022-08-26T01:02:20.799Z,94940.31
2022-08-26T01:04:55.428Z,94942.38
2022-08-26T01:07:26.060Z,94937.47
2022-08-26T01:09:54.452Z,94939.88
2022-08-26T01:12:25.835Z,94936.50
2022-08-26T01:14:53.945Z,94946.63
2022-08-26T01:17:22.119Z,94945.06
2022-08-26T01:19:53.507Z,94939.03
2022-08-26T01:22:26.720Z,94936.94
2022-08-26T01:24:59.633Z,94938.03
2022-08-26T01:27:32.435Z,94928.16
2022-08-26T01:30:02.654Z,94930.44
2022-08-26T01:32:32.726Z,94932.75
2022-08-26T01:35:00.832Z,94925.50
2022-08-26T01:37:36.514Z,94932.75
2022-08-26T01:40:09.003Z,94932.50
2022-08-26T01:42:36.957Z,94925.44
2022-08-26T01:45:10.861Z,94928.25
2022-08-26T01:47:40.157Z,94936.03
2022-08-26T01:50:15.710Z,94926.19
2022-08-26T01:52:57.075Z,94934.97
2022-08-26T01:55:33.055Z,94929.47
2022-08-26T01:58:05.601Z,94927.91
2022-08-26T02:00:34.890Z,94920.84
2022-08-26T02:03:18.130Z,94924.25
2022-08-26T02:05:51.232Z,94921.41
2022-08-26T02:08:24.801Z,94925.69
2022-08-26T02:10:55.656Z,94921.63
2022-08-26T02:13:27.544Z,94915.69
2022-08-26T02:15:56.281Z,94915.03
2022-08-26T02:18:26.154Z,94919.41
2022-08-26T02:20:56.455Z,94912.22
2022-08-26T02:23:24.653Z,94906.91
2022-08-26T02:26:00.538Z,94910.97
2022-08-26T02:28:32.136Z,94918.50
2022-08-26T02:31:00.234Z,94917.53
2022-08-26T02:33:31.343Z,94921.41
2022-08-26T02:35:59.237Z,94921.41
2022-08-26T02:38:27.754Z,94922.69
2022-08-26T02:40:57.189Z,94927.88
2022-08-26T02:43:32.682Z,94921.72
2022-08-26T02:46:02.396Z,94918.59
2022-08-26T02:48:31.228Z,94915.81
2022-08-26T02:51:01.746Z,94913.22
2022-08-26T02:53:31.912Z,94912.19
2022-08-26T02:56:01.679Z,94918.75
2022-08-26T02:58:31.217Z,94914.63
2022-08-26T03:00:59.549Z,94913.34
2022-08-26T03:03:29.851Z,94911.94
2022-08-26T03:05:58.730Z,94912.72
2022-08-26T03:08:26.707Z,94910.13
2022-08-26T03:10:55.249Z,94917.38
2022-08-26T03:13:25.328Z,94920.19
2022-08-26T03:15:53.233Z,94906.75
2022-08-26T03:18:21.216Z,94907.03
2022-08-26T03:20:49.095Z,94905.75
2022-08-26T03:23:16.947Z,94901.72
2022-08-26T03:25:50.210Z,94904.91
2022-08-26T03:28:19.366Z,94911.41
2022-08-26T03:30:49.299Z,94911.63
2022-08-26T03:33:18.044Z,94912.97
2022-08-26T03:35:47.762Z,94902.84
2022-08-26T03:38:18.784Z,94909.16
2022-08-26T03:40:46.772Z,94910.69
2022-08-26T03:43:16.063Z,94907.03
2022-08-26T03:45:44.755Z,94904.16
2022-08-26T03:48:15.379Z,94911.00
2022-08-26T03:50:43.936Z,94913.66
2022-08-26T03:53:13.199Z,94910.38
2022-08-26T03:55:43.208Z,94909.09
2022-08-26T03:58:11.597Z,94916.88
2022-08-26T04:00:39.543Z,94910.13
2022-08-26T04:03:10.063Z,94907.25
2022-08-26T04:05:39.702Z,94892.31
2022-08-26T04:08:08.288Z,94907.16
2022-08-26T04:10:38.878Z,94899.91
2022-08-26T04:13:07.344Z,94904.75
2022-08-26T04:15:35.428Z,94894.09
2022-08-26T04:18:03.370Z,94892.75
2022-08-26T04:20:31.931Z,94897.94
2022-08-26T04:23:01.294Z,94906.75
2022-08-26T04:25:29.682Z,94896.38
2022-08-26T04:27:57.616Z,94900.22
2022-08-26T04:30:25.567Z,94896.88
2022-08-26T04:32:53.420Z,94890.88
2022-08-26T04:35:25.814Z,94902.88
2022-08-26T04:37:54.468Z,94900.78
2022-08-26T04:40:24.163Z,94903.88
2022-08-26T04:42:53.907Z,94896.28
2022-08-26T04:45:22.755Z,94895.00
2022-08-26T04:47:54.532Z,94904.69
2022-08-26T04:50:23.602Z,94904.50
2022-08-26T04:52:51.556Z,94898.03
2022-08-26T04:55:19.549Z,94905.06
2022-08-26T04:57:49.039Z,94907.91
2022-08-26T05:00:17.946Z,94911.28
2022-08-26T05:02:46.161Z,94911.88
2022-08-26T05:05:14.306Z,94905.19
2022-08-26T05:07:42.355Z,94915.03
2022-08-26T05:10:11.402Z,94930.94
2022-08-26T05:12:39.255Z,94929.03
2022-08-26T05:15:10.995Z,94928.72
2022-08-26T05:17:39.363Z,94923.75
2022-08-26T05:20:08.960Z,94928.75
2022-08-26T05:22:36.808Z,94934.97
2022-08-26T05:25:05.314Z,94930.00
2022-08-26T05:27:33.155Z,94937.28
2022-08-26T05:30:02.327Z,94939.63
2022-08-26T05:32:32.019Z,94921.66
2022-08-26T05:35:00.383Z,94935.28
2022-08-26T05:37:28.664Z,94944.91
2022-08-26T05:39:57.451Z,94944.09
2022-08-26T05:42:25.994Z,94935.50
2022-08-26T05:44:56.360Z,94949.88
2022-08-26T05:47:24.610Z,94954.56
2022-08-26T05:49:55.402Z,94934.97
2022-08-26T05:52:24.660Z,94945.84
2022-08-26T05:54:54.367Z,94939.09
2022-08-26T05:57:22.673Z,94940.91
2022-08-26T05:59:51.973Z,94932.75
2022-08-26T06:02:20.869Z,94925.72
2022-08-26T06:04:48.931Z,94926.75
2022-08-26T06:07:38.318Z,94926.00
2022-08-26T06:10:31.166Z,94936.91
2022-08-26T06:12:57.413Z,94933.31
2022-08-26T06:15:25.965Z,94936.66
2022-08-26T06:17:53.879Z,94944.28
2022-08-26T06:20:21.839Z,94950.63
2022-08-26T06:23:09.025Z,94948.84
2022-08-26T06:25:39.957Z,94956.91
2022-08-26T06:28:08.887Z,94953.75
2022-08-26T06:30:40.744Z,94944.66
2022-08-26T06:33:09.616Z,94946.00
2022-08-26T06:35:39.633Z,94945.25
2022-08-26T06:38:09.598Z,94959.63
2022-08-26T06:40:42.433Z,94958.88
2022-08-26T06:43:11.244Z,94953.69
2022-08-26T06:45:39.721Z,94961.78
2022-08-26T06:48:09.150Z,94959.16
2022-08-26T06:50:37.641Z,94960.50
2022-08-26T06:53:05.940Z,94970.66
2022-08-26T06:55:40.724Z,94976.66
2022-08-26T06:58:09.400Z,94972.25
2022-08-26T07:00:38.327Z,94986.31
2022-08-26T07:03:08.235Z,94977.72
2022-08-26T07:05:37.041Z,94970.69
2022-08-26T07:08:05.550Z,94981.13
2022-08-26T07:10:33.879Z,94980.84
2022-08-26T07:13:03.160Z,94987.63
2022-08-26T07:15:35.819Z,94987.31
2022-08-26T07:18:03.906Z,94986.25
2022-08-26T07:20:31.881Z,94987.81
2022-08-26T07:22:59.879Z,94998.22
2022-08-26T07:25:29.609Z,94998.22
2022-08-26T07:27:57.508Z,94993.22
2022-08-26T07:30:26.922Z,95000.28
2022-08-26T07:32:58.322Z,95002.41
2022-08-26T07:35:27.214Z,94992.75
2022-08-26T07:37:57.156Z,95004.72
2022-08-26T07:40:25.983Z,95002.84
2022-08-26T07:42:54.446Z,95016.84
2022-08-26T07:45:22.982Z,95015.59
2022-08-26T07:47:53.269Z,95024.75
2022-08-26T07:50:22.316Z,95017.19
2022-08-26T07:53:10.937Z,95020.06
2022-08-26T07:55:39.174Z,95018.44
2022-08-26T07:58:07.448Z,95021.53
2022-08-26T08:00:35.664Z,95022.78
2022-08-26T08:03:06.887Z,95032.13
2022-08-26T08:05:36.425Z,95034.44
2022-08-26T08:08:27.532Z,95026.91
2022-08-26T08:10:55.228Z,95024.97
2022-08-26T08:13:23.571Z,95028.38
2022-08-26T08:15:51.723Z,95026.91
2022-08-26T08:18:23.054Z,95030.63
2022-08-26T08:20:59.005Z,95034.28
2022-08-26T08:23:34.383Z,95029.19
2022-08-26T08:26:03.269Z,95034.13
2022-08-26T08:28:31.325Z,95034.38
2022-08-26T08:30:59.317Z,95017.34
2022-08-26T08:33:30.169Z,95030.19
2022-08-26T08:35:58.036Z,95042.81
2022-08-26T08:38:26.111Z,95041.06
2022-08-26T08:40:57.669Z,95031.34
2022-08-26T08:43:37.636Z,95035.19
2022-08-26T08:46:11.330Z,95028.75
2022-08-26T08:48:44.857Z,95032.72
2022-08-26T08:51:22.848Z,95036.53
2022-08-26T08:53:54.789Z,95033.00
2022-08-26T08:56:28.255Z,95036.53
2022-08-26T08:59:07.430Z,95034.53
2022-08-26T09:01:48.589Z,95031.22
2022-08-26T09:05:02.224Z,95034.47
2022-08-26T09:07:36.858Z,95038.16
2022-08-26T09:10:18.285Z,95029.72
2022-08-26T09:12:48.691Z,95028.16
2022-08-26T09:15:19.769Z,95026.81
2022-08-26T09:17:59.199Z,95037.13
2022-08-26T09:20:39.355Z,95031.34
2022-08-26T09:23:07.475Z,95033.31
2022-08-26T09:25:46.840Z,95024.34
2022-08-26T09:28:19.361Z,95026.50
2022-08-26T09:30:58.906Z,95034.69
2022-08-26T09:33:30.475Z,95029.00
2022-08-26T09:36:18.595Z,95021.41
2022-08-26T09:38:46.652Z,95022.53
2022-08-26T09:41:26.787Z,95018.72
2022-08-26T09:44:14.559Z,95024.81
2022-08-26T09:46:47.416Z,95010.53
2022-08-26T09:49:31.630Z,95013.84
2022-08-26T09:52:16.883Z,95003.19
2022-08-26T09:54:46.289Z,95008.66
2022-08-26T09:57:20.166Z,94998.06
2022-08-26T09:59:49.368Z,95000.53
2022-08-26T10:02:47.754Z,94993.31
2022-08-26T10:05:20.015Z,94985.31
2022-08-26T10:07:52.228Z,94994.66
2022-08-26T10:10:24.599Z,94986.28
2022-08-26T10:13:04.380Z,94979.16
2022-08-26T10:15:42.485Z,94977.97
2022-08-26T10:18:21.240Z,94976.56
2022-08-26T10:21:02.662Z,94970.63
2022-08-26T10:26:21.380Z,94971.59
2022-08-26T10:28:55.365Z,94966.69
2022-08-26T10:31:28.640Z,94959.72
2022-08-26T10:34:00.380Z,94961.53
2022-08-26T10:37:14.819Z,94967.25
2022-08-26T10:39:46.397Z,94953.16
2022-08-26T10:42:22.550Z,94955.47
2022-08-26T10:44:58.754Z,94941.97
2022-08-26T10:47:34.959Z,94941.34
2022-08-26T10:50:04.567Z,94943.84
2022-08-26T10:52:52.524Z,94936.72
2022-08-26T10:55:28.482Z,94941.91
2022-08-26T10:58:05.001Z,94943.19
2022-08-26T11:00:55.344Z,94936.47
2022-08-26T11:03:35.609Z,94929.97
2022-08-26T11:06:24.955Z,94926.41
2022-08-26T11:08:54.880Z,94929.38
2022-08-26T11:11:50.850Z,94928.22
2022-08-26T11:14:42.070Z,94920.97
2022-08-26T11:17:55.333Z,94923.84
2022-08-26T11:20:35.665Z,94910.88
2022-08-26T11:23:37.210Z,94921.56
2022-08-26T11:26:35.638Z,94918.69
2022-08-26T11:29:13.167Z,94919.53
2022-08-26T11:31:57.064Z,94915.22
2022-08-26T11:34:56.326Z,94913.63
2022-08-26T11:37:34.276Z,94896.53
2022-08-26T11:40:04.842Z,94902.25
2022-08-26T11:42:38.304Z,94905.50
2022-08-26T11:45:24.219Z,94906.91
2022-08-26T11:47:52.486Z,94906.66
2022-08-26T11:50:26.020Z,94905.50
2022-08-26T11:52:55.812Z,94890.91
2022-08-26T11:55:24.111Z,94895.81
2022-08-26T11:57:55.625Z,94892.72
2022-08-26T12:00:27.297Z,94891.97
2022-08-26T12:03:02.348Z,94885.50
2022-08-26T12:05:33.257Z,94882.22
2022-08-26T12:08:07.105Z,94887.50
2022-08-26T12:10:36.512Z,94884.72
2022-08-26T12:13:07.172Z,94868.00
2022-08-26T12:15:36.944Z,94874.59
2022-08-26T12:18:29.555Z,94874.25
2022-08-26T12:21:01.417Z,94868.25
2022-08-26T12:23:41.122Z,94854.56
2022-08-26T12:26:15.215Z,94863.63
2022-08-26T12:28:46.156Z,94871.44
2022-08-26T12:31:26.092Z,94865.28
2022-08-26T12:33:59.090Z,94868.94
2022-08-26T12:36:31.534Z,94859.00
2022-08-26T12:39:07.944Z,94850.31
2022-08-26T12:41:50.308Z,94853.56
2022-08-26T12:44:53.805Z,94840.25
2022-08-26T12:47:30.861Z,94846.38
2022-08-26T12:50:17.480Z,94842.78
2022-08-26T12:52:55.124Z,94845.69
2022-08-26T12:55:25.646Z,94831.63
2022-08-26T12:58:12.074Z,94826.34
2022-08-26T13:00:41.592Z,94833.50
2022-08-26T13:03:45.485Z,94834.50
2022-08-26T13:06:17.306Z,94823.31
2022-08-26T13:08:46.292Z,94826.84
2022-08-26T13:11:16.739Z,94825.59
2022-08-26T13:13:45.613Z,94818.16
2022-08-26T13:16:15.455Z,94817.81
2022-08-26T13:18:44.789Z,94811.19
2022-08-26T13:21:19.446Z,94802.56
2022-08-26T13:23:47.849Z,94801.31
2022-08-26T13:26:16.797Z,94814.72
2022-08-26T13:28:45.146Z,94808.44
2022-08-26T13:31:17.407Z,94801.72
2022-08-26T13:33:48.531Z,94802.19
2022-08-26T13:36:17.285Z,94806.97
2022-08-26T13:38:45.352Z,94793.31
2022-08-26T13:41:28.905Z,94804.72
2022-08-26T13:43:58.816Z,94807.53
2022-08-26T13:46:28.073Z,94793.47
2022-08-26T13:48:57.730Z,94799.41
2022-08-26T13:51:27.119Z,94791.63
2022-08-26T13:53:55.714Z,94798.84
2022-08-26T13:56:23.816Z,94789.88
2022-08-26T13:58:51.803Z,94786.69
2022-08-26T14:01:19.720Z,94792.50
2022-08-26T14:03:47.828Z,94788.53
2022-08-26T14:06:17.805Z,94781.47
2022-08-26T14:08:46.145Z,94786.88
2022-08-26T14:11:14.341Z,94778.94
2022-08-26T14:13:42.193Z,94777.91
2022-08-26T14:16:13.426Z,94776.78
2022-08-26T14:18:45.292Z,94779.75
2022-08-26T14:21:18.081Z,94778.44
2022-08-26T14:23:46.140Z,94780.25
2022-08-26T14:26:28.268Z,94774.13
2022-08-26T14:28:58.693Z,94780.97
2022-08-26T14:31:29.253Z,94783.44
2022-08-26T14:33:59.300Z,94783.53
2022-08-26T14:36:32.588Z,94776.09
2022-08-26T14:39:03.049Z,94779.00
2022-08-26T14:41:31.939Z,94790.44
2022-08-26T14:44:03.113Z,94775.09
2022-08-26T14:46:34.379Z,94778.59
2022-08-26T14:49:05.246Z,94779.94
2022-08-26T14:51:36.583Z,94779.72
2022-08-26T14:54:13.703Z,94767.16
2022-08-26T14:56:46.897Z,94770.97
2022-08-26T14:59:17.511Z,94765.91
2022-08-26T15:01:45.885Z,94761.06
2022-08-26T15:04:14.822Z,94773.69
2022-08-26T15:06:44.155Z,94767.38
2022-08-26T15:09:12.758Z,94762.59
2022-08-26T15:11:40.639Z,94756.28
2022-08-26T15:14:08.713Z,94760.03
2022-08-26T15:16:47.236Z,94756.03
2022-08-26T15:19:15.476Z,94751.03
2022-08-26T15:21:45.666Z,94757.66
2022-08-26T15:24:14.661Z,94754.44
2022-08-26T15:26:42.589Z,94748.06
2022-08-26T15:29:10.587Z,94746.56
2022-08-26T15:31:38.513Z,94735.34
2022-08-26T15:34:11.030Z,94744.44
2022-08-26T15:36:42.717Z,94743.84
2022-08-26T15:39:12.103Z,94741.03
2022-08-26T15:41:40.172Z,94739.72
2022-08-26T15:44:08.872Z,94733.16
2022-08-26T15:46:37.534Z,94729.25
2022-08-26T15:49:07.002Z,94736.19
2022-08-26T15:51:45.394Z,94734.72
2022-08-26T15:54:17.025Z,94723.66
2022-08-26T15:56:45.353Z,94732.31
2022-08-26T15:59:15.264Z,94720.72
2022-08-26T16:01:44.345Z,94711.34
2022-08-26T16:04:12.561Z,94726.44
2022-08-26T16:06:43.667Z,94716.06
2022-08-26T16:09:11.872Z,94717.75
2022-08-26T16:11:41.093Z,94715.06
2022-08-26T16:14:09.576Z,94725.16
2022-08-26T16:16:39.253Z,94709.47
2022-08-26T16:19:07.801Z,94705.94
2022-08-26T16:21:36.565Z,94707.69
2022-08-26T16:24:05.300Z,94715.78
2022-08-26T16:26:37.340Z,94723.94
2022-08-26T16:29:09.029Z,94727.72
2022-08-26T16:31:38.294Z,94723.13
2022-08-26T16:34:07.080Z,94720.59
2022-08-26T16:36:43.904Z,94730.84
2022-08-26T16:39:13.047Z,94721.16
2022-08-26T16:41:40.961Z,94728.09
2022-08-26T16:44:11.428Z,94733.63
2022-08-26T16:46:41.122Z,94734.78
2022-08-26T16:49:09.466Z,94737.03
2022-08-26T16:51:37.904Z,94732.38
2022-08-26T16:54:07.832Z,94736.56
2022-08-26T16:56:36.800Z,94741.78
2022-08-26T16:59:05.903Z,94735.28
2022-08-26T17:01:35.245Z,94734.78
2022-08-26T17:04:03.383Z,94736.53
2022-08-26T17:06:31.312Z,94742.91
2022-08-26T17:08:59.455Z,94736.19
2022-08-26T17:11:27.354Z,94736.53
2022-08-26T17:13:55.239Z,94737.16
2022-08-26T17:16:26.591Z,94737.91
2022-08-26T17:18:57.330Z,94741.66
2022-08-26T17:21:25.628Z,94741.28
2022-08-26T17:23:53.958Z,94743.47
2022-08-26T17:26:22.360Z,94748.44
2022-08-26T17:28:50.841Z,94742.06
2022-08-26T17:31:19.049Z,94746.84
2022-08-26T17:33:53.240Z,94744.03
2022-08-26T17:36:27.923Z,94754.84
2022-08-26T17:38:57.054Z,94745.66
2022-08-26T17:41:25.368Z,94754.69
2022-08-26T17:43:53.325Z,94752.16
2022-08-26T17:46:21.230Z,94760.09
2022-08-26T17:48:49.196Z,94762.72
2022-08-26T17:51:19.252Z,94758.72
2022-08-26T17:53:48.990Z,94766.84
2022-08-26T17:56:19.408Z,94768.19
2022-08-26T17:58:50.990Z,94775.38
2022-08-26T18:01:20.316Z,94776.75
2022-08-26T18:03:48.424Z,94781.97
2022-08-26T18:06:16.598Z,94783.72
2022-08-26T18:08:44.918Z,94774.69
2022-08-26T18:11:16.589Z,94778.81
2022-08-26T18:13:47.245Z,94778.41
2022-08-26T18:16:17.584Z,94774.16
2022-08-26T18:18:46.508Z,94773.69
2022-08-26T18:21:16.694Z,94773.00
2022-08-26T18:23:45.396Z,94765.25
2022-08-26T18:26:21.173Z,94775.16
2022-08-26T18:28:49.212Z,94772.53
2022-08-26T18:31:17.199Z,94780.97
2022-08-26T18:33:45.941Z,94771.66
2022-08-26T18:36:19.119Z,94780.78
2022-08-26T18:38:47.459Z,94794.41
2022-08-26T18:41:20.648Z,94812.09
2022-08-26T18:43:50.326Z,94850.88
2022-08-26T18:46:19.219Z,94881.28
2022-08-26T18:48:50.783Z,94868.97
2022-08-26T18:51:21.008Z,94871.94
2022-08-26T18:53:48.978Z,94846.53
2022-08-26T18:56:18.617Z,94855.72
2022-08-26T18:58:48.566Z,94862.63
2022-08-26T19:01:17.455Z,94877.31
2022-08-26T19:03:45.971Z,94877.72
2022-08-26T19:06:15.984Z,94886.28
2022-08-26T19:08:44.595Z,94880.00
2022-08-26T19:11:13.975Z,94839.56
2022-08-26T19:13:42.713Z,94820.81
2022-08-26T19:16:17.691Z,94800.75
2022-08-26T19:18:46.009Z,94803.59
2022-08-26T19:21:14.328Z,94802.31
2022-08-26T19:23:42.322Z,94790.81
2022-08-26T19:26:10.949Z,94779.41
2022-08-26T19:28:40.673Z,94780.63
2022-08-26T19:31:10.409Z,94775.47
2022-08-26T19:33:41.796Z,94778.97
2022-08-26T19:36:14.980Z,94796.63
2022-08-26T19:38:43.356Z,94804.53
2022-08-26T19:41:13.379Z,94817.31
2022-08-26T19:43:41.730Z,94842.41
2022-08-26T19:46:12.358Z,94828.75
2022-08-26T19:48:44.052Z,94804.13
2022-08-26T19:51:14.079Z,94808.91
2022-08-26T19:53:42.143Z,94807.38
2022-08-26T19:56:10.115Z,94812.00
2022-08-26T19:58:38.207Z,94785.91
2022-08-26T20:01:06.312Z,94776.81
2022-08-26T20:03:34.918Z,94773.97
2022-08-26T20:06:05.977Z,94764.44
2022-08-26T20:08:34.379Z,94754.16
2022-08-26T20:11:06.962Z,94770.56
2022-08-26T20:13:34.891Z,94779.44
2022-08-26T20:16:03.575Z,94768.88
2022-08-26T20:18:48.750Z,94774.59
2022-08-26T20:21:27.399Z,94777.72
2022-08-26T20:23:56.568Z,94772.00
2022-08-26T20:26:24.523Z,94775.13
2022-08-26T20:28:52.588Z,94776.41
2022-08-26T20:31:20.508Z,94774.84
2022-08-26T20:33:50.546Z,94760.63
2022-08-26T20:36:21.064Z,94771.28
2022-08-26T20:38:49.418Z,94792.75
2022-08-26T20:41:18.125Z,94794.53
2022-08-26T20:43:47.198Z,94794.06
2022-08-26T20:46:17.986Z,94790.81
2022-08-26T20:48:48.479Z,94802.31
2022-08-26T20:51:16.461Z,94801.56
2022-08-26T20:53:46.862Z,94799.22
2022-08-26T20:56:16.381Z,94791.94
2022-08-26T20:58:44.363Z,94787.25
2022-08-26T21:01:19.635Z,94810.06
2022-08-26T21:03:48.008Z,94805.97
2022-08-26T21:06:15.963Z,94794.56
2022-08-26T21:08:45.164Z,94802.19
2022-08-26T21:11:13.604Z,94795.63
2022-08-26T21:14:01.686Z,94807.00
2022-08-26T21:16:29.900Z,94818.09
2022-08-26T21:18:57.843Z,94826.34
2022-08-26T21:21:28.508Z,94837.63
2022-08-26T21:23:57.839Z,94843.25
2022-08-26T21:26:26.048Z,94852.94
2022-08-26T21:28:54.239Z,94865.03
2022-08-26T21:31:23.908Z,94881.06
2022-08-26T21:33:51.815Z,94888.34
2022-08-26T21:36:20.589Z,94876.19
2022-08-26T21:38:48.736Z,94868.22
2022-08-26T21:41:21.941Z,94884.81
2022-08-26T21:43:51.807Z,94903.16
2022-08-26T21:46:22.360Z,94915.69
2022-08-26T21:48:52.689Z,94917.31
2022-08-26T21:51:23.602Z,94927.09
2022-08-26T21:53:52.750Z,94928.91
2022-08-26T21:56:24.166Z,94926.13
2022-08-26T21:58:54.944Z,94929.34
2022-08-26T22:01:24.669Z,94938.56
2022-08-26T22:03:53.601Z,94939.31
2022-08-26T22:06:23.760Z,94928.84
2022-08-26T22:08:52.286Z,94917.66
2022-08-26T22:11:22.048Z,94912.44
2022-08-26T22:13:50.796Z,94910.94
2022-08-26T22:16:19.760Z,94915.59
2022-08-26T22:18:47.895Z,94907.25
2022-08-26T22:21:18.115Z,94904.38
2022-08-26T22:23:46.425Z,94898.44
2022-08-26T22:26:20.606Z,94889.56
2022-08-26T22:28:59.038Z,94898.16
2022-08-26T22:31:37.943Z,94892.81
2022-08-26T22:34:08.085Z,94887.13
2022-08-26T22:36:39.822Z,94878.94
2022-08-26T22:39:13.421Z,94878.56
2022-08-26T22:41:42.089Z,94870.47
2022-08-26T22:44:12.508Z,94875.25
2022-08-26T22:46:41.412Z,94883.28
2022-08-26T22:49:12.457Z,94872.28
2022-08-26T22:51:40.402Z,94878.16
2022-08-26T22:54:08.373Z,94887.38
2022-08-26T22:56:36.924Z,94883.19
2022-08-26T22:59:06.659Z,94878.34
2022-08-26T23:01:37.434Z,94879.44
2022-08-26T23:04:07.381Z,94887.03
2022-08-26T23:06:36.846Z,94887.19
2022-08-26T23:09:05.872Z,94894.91
2022-08-26T23:11:34.188Z,94880.72
2022-08-26T23:14:06.452Z,94887.94
2022-08-26T23:16:39.510Z,94895.25
2022-08-26T23:19:08.130Z,94892.41
2022-08-26T23:21:36.030Z,94890.19
2022-08-26T23:24:04.365Z,94882.78
2022-08-26T23:26:32.768Z,94886.44
2022-08-26T23:29:01.010Z,94896.19
2022-08-26T23:31:28.923Z,94891.56
2022-08-26T23:34:16.108Z,94891.84
2022-08-26T23:36:45.722Z,94898.28
2022-08-26T23:39:15.117Z,94903.22
2022-08-26T23:41:43.523Z,94907.88
2022-08-26T23:44:12.321Z,94900.31
2022-08-26T23:46:40.304Z,94897.97
2022-08-26T23:49:09.644Z,94884.75
2022-08-26T23:51:56.862Z,94901.47
2022-08-26T23:54:24.711Z,94895.47
2022-08-26T23:56:52.561Z,94900.34
2022-08-26T23:59:20.627Z,94920.56
